Time;durP1;ratioP1;P1;durP2;ratioP2;P2;SDS_P1;SDS_P2;PMS_P1;PMS_P2;Temp;Humidity;BMP_temperature;BMP_pressure;BME280_temperature;BME280_humidity;BME280_pressure;Samples;Min_cycle;Max_cycle;Signal;HPM_P1;HPM_P2
2024/02/12 00:02:49;;;;;;;;;;;;;;;18.13;35.72;94103.69;10517469;28;2417;-59
2024/02/12 00:07:49;;;;;;;;;;;;;;;18.12;35.71;94102.13;10518475;28;1361;-59
2024/02/12 00:12:52;;;;;;;;;;;;;;;18.12;35.89;94102.13;10524095;28;1570;-59
2024/02/12 00:17:52;;;;;;;;;;;;;;;18.11;35.72;94093.50;10515730;28;1913;-59
2024/02/12 00:22:52;;;;;;;;;;;;;;;18.11;35.71;94079.63;10507584;28;1472;-59
2024/02/12 00:27:53;;;;;;;;;;;;;;;18.10;35.75;94091.16;10506344;28;1478;-59
2024/02/12 00:32:54;;;;;;;;;;;;;;;18.08;35.71;94096.72;10508192;28;1595;-59
2024/02/12 00:37:55;;;;;;;;;;;;;;;18.08;35.61;94095.94;10511134;28;1910;-59
2024/02/12 00:42:57;;;;;;;;;;;;;;;18.07;35.68;94091.78;10512082;28;1511;-59
2024/02/12 00:47:58;;;;;;;;;;;;;;;18.07;35.61;94097.00;10516032;28;2298;-59
2024/02/12 00:52:58;;;;;;;;;;;;;;;18.07;35.52;94097.78;10505176;28;1517;-58
2024/02/12 00:58:00;;;;;;;;;;;;;;;18.06;35.70;94100.69;10512311;28;1965;-59
2024/02/12 01:03:01;;;;;;;;;;;;;;;18.06;35.45;94100.69;10516194;28;1633;-59
2024/02/12 01:08:05;;;;;;;;;;;;;;;18.04;35.57;94097.59;10522776;28;1456;-59
2024/02/12 01:13:06;;;;;;;;;;;;;;;18.04;35.48;94105.47;10515431;28;1547;-59
2024/02/12 01:18:07;;;;;;;;;;;;;;;18.04;35.51;94110.69;10518342;28;1972;-59
2024/02/12 01:23:08;;;;;;;;;;;;;;;18.03;35.42;94104.69;10509566;28;1468;-58
2024/02/12 01:28:08;;;;;;;;;;;;;;;18.01;35.35;94116.56;10504443;28;1714;-58
2024/02/12 01:33:08;;;;;;;;;;;;;;;18.01;35.32;94112.06;10513815;28;1456;-58
2024/02/12 01:38:09;;;;;;;;;;;;;;;18.00;35.44;94110.53;10522024;28;1909;-58
2024/02/12 01:43:23;;;;;;;;;;;;;;;18.00;35.55;94118.38;10509352;28;2280;-58
2024/02/12 01:48:25;;;;;;;;;;;;;;;17.99;35.30;94113.44;10509231;28;1564;-59
2024/02/12 01:53:25;;;;;;;;;;;;;;;18.00;35.50;94109.75;10511183;28;1458;-57
2024/02/12 01:58:25;;;;;;;;;;;;;;;17.99;35.45;94113.44;10505262;28;1919;-58
2024/02/12 02:03:26;;;;;;;;;;;;;;;17.98;35.37;94114.50;10509375;28;1610;-59
2024/02/12 02:08:36;;;;;;;;;;;;;;;17.96;35.50;94114.81;10513705;28;1969;-59
2024/02/12 02:13:42;;;;;;;;;;;;;;;17.96;35.42;94121.91;10508177;28;1700;-59
2024/02/12 02:18:46;;;;;;;;;;;;;;;17.96;35.43;94114.03;10509006;28;1973;-58
2024/02/12 02:23:47;;;;;;;;;;;;;;;17.94;35.55;94111.72;10503453;28;1606;-60
2024/02/12 02:28:47;;;;;;;;;;;;;;;17.93;35.49;94104.91;10516557;28;2270;-60
2024/02/12 02:33:47;;;;;;;;;;;;;;;17.94;35.47;94101.22;10518393;28;1680;-60
2024/02/12 02:38:48;;;;;;;;;;;;;;;17.93;35.38;94093.66;10510963;28;1973;-60
2024/02/12 02:43:48;;;;;;;;;;;;;;;17.92;35.59;94100.75;10512800;28;1705;-60
2024/02/12 02:48:48;;;;;;;;;;;;;;;17.92;35.48;94097.34;10515673;28;1822;-58
2024/02/12 02:53:49;;;;;;;;;;;;;;;17.91;35.38;94101.06;10513655;28;1657;-60
2024/02/12 02:58:50;;;;;;;;;;;;;;;17.89;35.41;94107.34;10517378;28;1909;-60
2024/02/12 03:03:51;;;;;;;;;;;;;;;17.88;35.25;94111.06;10508401;28;1614;-60
2024/02/12 03:08:52;;;;;;;;;;;;;;;17.88;35.27;94113.69;10513953;28;1658;-60
2024/02/12 03:13:52;;;;;;;;;;;;;;;17.88;35.32;94120.75;10507992;28;2444;-60
2024/02/12 03:18:52;;;;;;;;;;;;;;;17.87;35.34;94116.56;10511509;28;1977;-58
2024/02/12 03:23:53;;;;;;;;;;;;;;;17.85;35.33;94114.25;10514120;28;1725;-60
2024/02/12 03:28:54;;;;;;;;;;;;;;;17.84;35.44;94125.03;10508832;28;1666;-60
2024/02/12 03:33:54;;;;;;;;;;;;;;;17.84;35.50;94127.66;10512652;28;1656;-60
2024/02/12 03:38:55;;;;;;;;;;;;;;;17.84;35.43;94136.31;10514216;28;1906;-60
2024/02/12 03:43:57;;;;;;;;;;;;;;;17.83;35.35;94137.38;10511807;28;1550;-60
2024/02/12 03:59:53;;;;;;;;;;;;;;;17.82;35.30;94140.28;10507847;28;1906;-60
2024/02/12 04:04:54;;;;;;;;;;;;;;;17.81;35.38;94149.19;10512053;28;1618;-60
2024/02/12 04:09:54;;;;;;;;;;;;;;;17.79;35.26;94157.38;10496489;28;2426;-60
2024/02/12 04:14:55;;;;;;;;;;;;;;;17.80;35.38;94173.88;10518240;28;1728;-60
2024/02/12 04:19:55;;;;;;;;;;;;;;;17.79;35.36;94180.16;10520437;28;1914;-60
2024/02/12 04:24:56;;;;;;;;;;;;;;;17.78;35.31;94179.38;10510005;28;1470;-60
2024/02/12 04:29:57;;;;;;;;;;;;;;;17.78;35.42;94183.88;10515821;28;1786;-60
2024/02/12 04:34:57;;;;;;;;;;;;;;;17.78;35.32;94192.50;10511910;28;1596;-60
2024/02/12 04:39:57;;;;;;;;;;;;;;;17.77;35.41;94190.97;10515564;28;1908;-60
2024/02/12 04:44:58;;;;;;;;;;;;;;;17.76;35.42;94194.63;10516238;28;1473;-60
2024/02/12 04:49:58;;;;;;;;;;;;;;;17.76;35.42;94205.13;10512058;28;1858;-60
2024/02/12 04:54:59;;;;;;;;;;;;;;;17.75;35.31;94206.19;10503338;28;1488;-60
2024/02/12 04:59:59;;;;;;;;;;;;;;;17.75;35.43;94208.81;10519672;28;1918;-61
2024/02/12 05:05:00;;;;;;;;;;;;;;;17.74;35.26;94202.00;10516947;28;2308;-61
2024/02/12 05:10:00;;;;;;;;;;;;;;;17.74;35.27;94209.88;10504367;28;1810;-60
2024/02/12 05:15:01;;;;;;;;;;;;;;;17.73;35.33;94210.97;10512516;28;1458;-60
2024/02/12 05:25:20;;;;;;;;;;;;;;;17.71;35.28;94212.31;10508072;28;1422;-60
2024/02/12 05:30:20;;;;;;;;;;;;;;;17.71;35.40;94217.53;10512008;28;1763;-60
2024/02/12 05:35:21;;;;;;;;;;;;;;;17.70;35.23;94216.00;10513005;28;1873;-60
2024/02/12 05:40:21;;;;;;;;;;;;;;;17.71;35.28;94225.41;10513226;28;1910;-60
2024/02/12 05:45:21;;;;;;;;;;;;;;;17.69;35.23;94217.84;10507922;28;1481;-60
2024/02/12 05:50:22;;;;;;;;;;;;;;;17.69;35.20;94214.44;10505324;28;1885;-60
2024/02/12 05:55:22;;;;;;;;;;;;;;;17.69;35.30;94228.34;10501753;28;1526;-60
2024/02/12 06:00:22;;;;;;;;;;;;;;;17.69;35.22;94235.41;10519014;28;2391;-60
2024/02/12 06:05:22;;;;;;;;;;;;;;;17.68;35.31;94233.88;10512492;28;1581;-60
2024/02/12 06:10:23;;;;;;;;;;;;;;;17.67;35.22;94240.16;10515715;28;1895;-61
2024/02/12 06:15:23;;;;;;;;;;;;;;;17.66;35.46;94247.25;10518047;28;1806;-60
2024/02/12 06:20:23;;;;;;;;;;;;;;;17.65;35.23;94250.94;10525847;28;1906;-59
2024/02/12 06:25:24;;;;;;;;;;;;;;;17.66;35.30;94267.44;10522545;28;1539;-60
2024/02/12 06:30:25;;;;;;;;;;;;;;;17.64;35.33;94265.09;10522178;28;1646;-60
2024/02/12 06:35:25;;;;;;;;;;;;;;;17.65;35.33;94273.75;10524203;28;1916;-60
2024/02/12 06:40:25;;;;;;;;;;;;;;;17.64;35.38;94283.44;10517330;28;1969;-60
2024/02/12 06:45:25;;;;;;;;;;;;;;;17.63;35.19;94283.75;10516720;28;2345;-60
2024/02/12 06:50:26;;;;;;;;;;;;;;;17.62;35.34;94290.81;10517849;28;1746;-60
2024/02/12 06:55:27;;;;;;;;;;;;;;;17.62;35.39;94292.69;10523174;28;1558;-60
2024/02/12 07:00:28;;;;;;;;;;;;;;;17.61;35.36;94305.00;10514015;28;1909;-60
2024/02/12 07:05:28;;;;;;;;;;;;;;;17.62;35.35;94313.66;10519079;28;1429;-62
2024/02/12 07:10:29;;;;;;;;;;;;;;;17.60;35.34;94313.91;10511228;28;1577;-60
2024/02/12 07:15:29;;;;;;;;;;;;;;;17.59;35.40;94322.84;10519715;28;1437;-58
2024/02/12 07:20:29;;;;;;;;;;;;;;;17.60;35.38;94324.38;10520229;28;1995;-59
2024/02/12 07:25:30;;;;;;;;;;;;;;;17.59;35.16;94337.78;10512999;28;1472;-59
2024/02/12 07:30:31;;;;;;;;;;;;;;;17.59;35.39;94335.16;10514489;28;1574;-60
2024/02/12 07:35:31;;;;;;;;;;;;;;;17.57;35.48;94343.31;10509300;28;1459;-60
2024/02/12 07:40:33;;;;;;;;;;;;;;;17.57;35.36;94345.94;10513657;28;2436;-59
2024/02/12 07:45:34;;;;;;;;;;;;;;;17.57;35.37;94355.63;10515017;28;1522;-59
2024/02/12 07:50:35;;;;;;;;;;;;;;;17.57;35.48;94356.41;10517424;28;1401;-59
2024/02/12 07:55:35;;;;;;;;;;;;;;;17.57;35.34;94361.66;10520622;28;1654;-60
2024/02/12 08:00:36;;;;;;;;;;;;;;;17.56;35.43;94367.16;10513238;28;1902;-60
2024/02/12 08:05:37;;;;;;;;;;;;;;;17.55;35.46;94370.88;10517156;28;1505;-60
2024/02/12 08:10:37;;;;;;;;;;;;;;;17.55;35.58;94371.66;10516863;28;1772;-60
2024/02/12 08:15:37;;;;;;;;;;;;;;;17.54;35.49;94380.56;10510972;28;1772;-59
2024/02/12 08:20:37;;;;;;;;;;;;;;;17.52;35.40;94380.06;10516476;28;1910;-59
2024/02/12 08:25:38;;;;;;;;;;;;;;;17.53;35.57;94381.66;10501882;28;1493;-59
2024/02/12 08:30:38;;;;;;;;;;;;;;;17.52;35.55;94395.00;10525133;28;2747;-60
2024/02/12 08:35:39;;;;;;;;;;;;;;;17.52;35.67;94402.88;10522760;28;1652;-59
2024/02/12 08:40:39;;;;;;;;;;;;;;;17.51;35.58;94402.09;10514084;28;1978;-60
2024/02/12 08:45:40;;;;;;;;;;;;;;;17.50;35.69;94408.41;10517546;28;1472;-60
2024/02/12 08:50:43;;;;;;;;;;;;;;;17.50;35.88;94405.78;10510986;28;1460;-59
2024/02/12 08:55:43;;;;;;;;;;;;;;;17.51;35.79;94415.22;10515884;28;1849;-59
2024/02/12 09:00:44;;;;;;;;;;;;;;;17.49;35.86;94427.00;10514403;28;1917;-59
2024/02/12 09:05:45;;;;;;;;;;;;;;;17.50;35.79;94436.44;10509404;28;1449;-59
2024/02/12 09:10:45;;;;;;;;;;;;;;;17.48;35.90;94434.06;10514236;28;2706;-60
2024/02/12 09:15:45;;;;;;;;;;;;;;;17.48;35.72;94428.84;10516238;28;1497;-58
2024/02/12 09:20:46;;;;;;;;;;;;;;;17.48;35.87;94433.28;10513875;28;1892;-60
2024/02/12 09:25:50;;;;;;;;;;;;;;;17.50;36.27;94444.28;10512486;28;1633;-59
2024/02/12 09:30:52;;;;;;;;;;;;;;;17.51;36.71;94438.00;10508177;28;1568;-60
2024/02/12 09:35:52;;;;;;;;;;;;;;;17.53;36.62;94449.75;10523960;28;2004;-60
2024/02/12 09:40:53;;;;;;;;;;;;;;;17.54;36.51;94447.91;10529181;28;1914;-60
2024/02/12 09:45:54;;;;;;;;;;;;;;;17.55;36.24;94463.34;10520576;28;2332;-59
2024/02/12 09:50:54;;;;;;;;;;;;;;;17.55;36.53;94467.81;10525682;28;1532;-59
2024/02/12 09:55:55;;;;;;;;;;;;;;;17.56;36.48;94478.00;10516740;28;1496;-60
2024/02/12 10:00:56;;;;;;;;;;;;;;;17.55;36.48;94470.44;10518336;28;1917;-60
2024/02/12 10:05:56;;;;;;;;;;;;;;;17.54;36.91;94480.13;10522813;28;1857;-59
2024/02/12 10:10:56;;;;;;;;;;;;;;;17.54;36.73;94484.56;10516752;28;1493;-60
2024/02/12 10:15:56;;;;;;;;;;;;;;;17.52;36.87;94484.88;10522028;28;1518;-60
2024/02/12 10:20:57;;;;;;;;;;;;;;;17.52;36.92;94487.50;10518544;28;1969;-59
2024/02/12 10:25:57;;;;;;;;;;;;;;;17.52;36.69;94487.50;10522784;28;2592;-60
2024/02/12 10:30:57;;;;;;;;;;;;;;;17.52;36.79;94484.09;10519757;28;1448;-60
2024/02/12 10:36:00;;;;;;;;;;;;;;;17.51;36.85;94483.31;10520923;28;1480;-59
2024/02/12 10:41:04;;;;;;;;;;;;;;;17.51;36.93;94477.31;10521501;28;1988;-59
2024/02/12 10:46:04;;;;;;;;;;;;;;;17.51;36.78;94485.94;10509118;28;1632;-60
2024/02/12 10:51:04;;;;;;;;;;;;;;;17.51;36.98;94477.31;10521822;28;1464;-60
2024/02/12 10:56:08;;;;;;;;;;;;;;;17.51;36.96;94485.16;10515944;28;1505;-60
2024/02/12 11:01:11;;;;;;;;;;;;;;;17.50;36.94;94484.38;10525379;28;1902;-60
2024/02/12 11:06:14;;;;;;;;;;;;;;;17.50;37.01;94484.38;10509518;28;1770;-59
2024/02/12 11:11:20;;;;;;;;;;;;;;;17.50;36.73;94488.81;10523880;28;2538;-60
2024/02/12 11:16:20;;;;;;;;;;;;;;;17.49;36.95;94488.06;10513857;28;1568;-60
2024/02/12 11:21:23;;;;;;;;;;;;;;;17.48;36.88;94486.47;10511553;28;1963;-60
2024/02/12 11:26:23;;;;;;;;;;;;;;;17.49;36.90;94482.84;10502772;28;1714;-60
2024/02/12 11:31:23;;;;;;;;;;;;;;;17.48;36.97;94489.09;10515553;28;1509;-60
2024/02/12 11:36:24;;;;;;;;;;;;;;;17.47;36.95;94490.16;10519792;28;1532;-60
2024/02/12 11:41:24;;;;;;;;;;;;;;;17.47;36.97;94487.53;10511498;28;1914;-60
2024/02/12 11:46:24;;;;;;;;;;;;;;;17.48;36.88;94496.16;10524914;28;1473;-60
2024/02/12 11:51:24;;;;;;;;;;;;;;;17.48;37.02;94491.72;10513769;28;2556;-60
2024/02/12 11:56:25;;;;;;;;;;;;;;;17.49;36.96;94490.69;10519435;28;1558;-60
2024/02/12 12:01:26;;;;;;;;;;;;;;;17.48;36.99;94491.72;10506393;28;1985;-60
2024/02/12 12:06:29;;;;;;;;;;;;;;;17.48;37.12;94491.72;10515224;28;1729;-60
2024/02/12 12:11:31;;;;;;;;;;;;;;;17.48;37.04;94494.34;10515691;28;1789;-60
2024/02/12 12:16:31;;;;;;;;;;;;;;;17.47;37.17;94498.03;10514275;28;1446;-60
2024/02/12 12:21:34;;;;;;;;;;;;;;;17.47;37.21;94494.63;10512020;28;1933;-60
2024/02/12 12:26:35;;;;;;;;;;;;;;;17.47;37.19;94495.41;10515762;28;1810;-60
2024/02/12 12:31:36;;;;;;;;;;;;;;;17.48;37.18;94489.09;10512485;28;2646;-60
2024/02/12 12:36:38;;;;;;;;;;;;;;;17.50;37.19;94492.22;10512288;28;1963;-60
2024/02/12 12:41:38;;;;;;;;;;;;;;;17.49;37.26;94484.63;10514549;28;1594;-60
2024/02/12 12:46:39;;;;;;;;;;;;;;;17.50;37.21;94480.97;10518785;28;1756;-60
2024/02/12 12:51:39;;;;;;;;;;;;;;;17.50;37.39;94479.13;10516445;28;1876;-60
2024/02/12 12:56:39;;;;;;;;;;;;;;;17.51;37.63;94487.78;10511130;28;1910;-60
2024/02/12 13:01:40;;;;;;;;;;;;;;;17.51;37.57;94488.56;10514454;28;1503;-60
2024/02/12 13:06:42;;;;;;;;;;;;;;;17.51;37.69;94493.03;10516041;28;1609;-60
2024/02/12 13:11:43;;;;;;;;;;;;;;;17.52;37.79;94494.56;10504656;28;1739;-60
2024/02/12 13:16:44;;;;;;;;;;;;;;;17.51;37.88;94488.56;10498662;28;2688;-60
2024/02/12 13:21:45;;;;;;;;;;;;;;;17.53;37.89;94494.31;10513132;28;1448;-60
2024/02/12 13:26:45;;;;;;;;;;;;;;;17.51;37.73;94496.44;10512591;28;1491;-60
2024/02/12 13:31:45;;;;;;;;;;;;;;;17.52;37.82;94507.66;10514414;28;1898;-60
2024/02/12 13:36:51;;;;;;;;;;;;;;;17.51;37.88;94506.13;10514859;28;1976;-60
2024/02/12 13:41:51;;;;;;;;;;;;;;;17.50;37.70;94507.94;10518809;28;1622;-60
2024/02/12 13:46:51;;;;;;;;;;;;;;;17.50;37.76;94509.78;10519523;28;1487;-58
2024/02/12 13:51:52;;;;;;;;;;;;;;;17.49;37.66;94508.22;10513163;28;1469;-60
2024/02/12 13:56:52;;;;;;;;;;;;;;;17.49;37.74;94510.84;10512349;28;2506;-59
2024/02/12 14:01:52;;;;;;;;;;;;;;;17.47;37.73;94518.19;10516563;28;1486;-60
2024/02/12 14:06:52;;;;;;;;;;;;;;;17.47;37.68;94521.59;10515822;28;1836;-60
2024/02/12 14:11:53;;;;;;;;;;;;;;;17.47;37.72;94534.69;10510998;28;1755;-60
2024/02/12 14:16:54;;;;;;;;;;;;;;;17.50;37.70;94531.53;10511194;28;1910;-60
2024/02/12 14:21:54;;;;;;;;;;;;;;;17.51;37.76;94538.34;10515938;28;1811;-60
2024/02/12 14:26:55;;;;;;;;;;;;;;;17.50;37.70;94546.47;10514552;28;1634;-60
2024/02/12 14:31:55;;;;;;;;;;;;;;;17.50;37.64;94555.13;10517890;28;1668;-60
2024/02/12 14:36:55;;;;;;;;;;;;;;;17.50;37.58;94555.13;10513205;28;1969;-60
2024/02/12 14:41:56;;;;;;;;;;;;;;;17.49;37.76;94561.44;10511646;28;1405;-60
2024/02/12 14:46:56;;;;;;;;;;;;;;;17.48;37.86;94570.31;10515611;28;1444;-60
2024/02/12 14:51:56;;;;;;;;;;;;;;;17.47;37.72;94571.38;10523063;28;2311;-60
2024/02/12 14:56:57;;;;;;;;;;;;;;;17.48;37.73;94582.63;10514282;28;1914;-59
2024/02/12 15:01:58;;;;;;;;;;;;;;;17.46;37.85;94577.66;10519177;28;1559;-60
2024/02/12 15:06:58;;;;;;;;;;;;;;;17.45;37.80;94588.44;10510152;28;1991;-60
2024/02/12 15:11:59;;;;;;;;;;;;;;;17.46;37.75;94603.06;10518198;28;1839;-60
2024/02/12 15:17:00;;;;;;;;;;;;;;;17.44;37.81;94613.84;10522810;28;1957;-60
2024/02/12 15:22:00;;;;;;;;;;;;;;;17.43;37.84;94612.31;10520643;28;1504;-60
2024/02/12 15:27:00;;;;;;;;;;;;;;;17.42;37.75;94623.81;10510255;28;1448;-61
2024/02/12 15:32:06;;;;;;;;;;;;;;;17.42;37.77;94630.91;10517616;28;2398;-60
2024/02/12 15:37:07;;;;;;;;;;;;;;;17.40;37.77;94639.03;10511478;28;1973;-60
2024/02/12 15:42:07;;;;;;;;;;;;;;;17.40;37.78;94651.34;10512647;28;1485;-60
2024/02/12 15:47:08;;;;;;;;;;;;;;;17.40;37.69;94659.22;10501462;28;1586;-59
2024/02/12 15:52:10;;;;;;;;;;;;;;;17.39;37.75;94670.75;10510597;28;1425;-60
2024/02/12 15:57:17;;;;;;;;;;;;;;;17.38;37.65;94685.69;10513318;28;1914;-60
2024/02/12 16:02:17;;;;;;;;;;;;;;;17.37;37.65;94689.34;10512486;28;1469;-60
2024/02/12 16:07:18;;;;;;;;;;;;;;;17.37;37.56;94705.06;10506382;28;1489;-60
2024/02/12 16:12:20;;;;;;;;;;;;;;;17.36;37.56;94715.84;10517608;28;2236;-60
2024/02/12 16:17:20;;;;;;;;;;;;;;;17.35;37.66;94717.66;10515858;28;1917;-61
2024/02/12 16:22:21;;;;;;;;;;;;;;;17.36;37.56;94724.47;10516016;28;1417;-60
2024/02/12 16:27:22;;;;;;;;;;;;;;;17.35;37.65;94730.00;10519512;28;1450;-60
2024/02/12 16:32:23;;;;;;;;;;;;;;;17.36;37.69;94740.19;10512483;28;1737;-60
2024/02/12 16:37:23;;;;;;;;;;;;;;;17.34;37.66;94739.69;10521412;28;1984;-60
2024/02/12 16:42:23;;;;;;;;;;;;;;;17.33;37.55;94753.84;10513611;28;1435;-60
2024/02/12 16:47:24;;;;;;;;;;;;;;;17.31;37.57;94769.03;10507957;28;1501;-60
2024/02/12 16:52:24;;;;;;;;;;;;;;;17.33;37.54;94779.28;10515995;28;1635;-59
2024/02/12 16:57:25;;;;;;;;;;;;;;;17.32;37.44;94781.09;10515577;28;1913;-59
2024/02/12 17:02:28;;;;;;;;;;;;;;;17.32;37.56;94788.16;10522563;28;1476;-60
2024/02/12 17:07:30;;;;;;;;;;;;;;;17.32;37.52;94796.03;10516149;28;2354;-60
2024/02/12 17:12:31;;;;;;;;;;;;;;;17.31;37.46;94800.47;10515297;28;1651;-59
2024/02/12 17:17:31;;;;;;;;;;;;;;;17.32;37.50;94822.22;10521602;28;1953;-60
2024/02/12 17:22:33;;;;;;;;;;;;;;;17.30;37.54;94834.81;10522920;28;1520;-60
2024/02/12 17:27:34;;;;;;;;;;;;;;;17.29;37.46;94836.63;10508688;28;1469;-60
2024/02/12 17:32:35;;;;;;;;;;;;;;;17.30;37.50;94842.66;10512905;28;1664;-60
2024/02/12 17:37:35;;;;;;;;;;;;;;;17.30;37.46;94840.84;10508653;28;1973;-61
2024/02/12 17:42:36;;;;;;;;;;;;;;;17.29;37.47;94854.97;10507641;28;1650;-60
2024/02/12 17:47:40;;;;;;;;;;;;;;;17.28;37.31;94863.13;10515456;28;1481;-61
2024/02/12 17:52:40;;;;;;;;;;;;;;;17.28;37.52;94874.38;10513108;28;1484;-61
2024/02/12 17:57:41;;;;;;;;;;;;;;;17.27;37.45;94874.66;10525409;28;1902;-61
2024/02/12 18:02:41;;;;;;;;;;;;;;;17.27;37.34;94883.28;10532013;28;1654;-60
2024/02/12 18:07:42;;;;;;;;;;;;;;;17.26;37.47;94886.97;10513525;28;2620;-59
2024/02/12 18:12:45;;;;;;;;;;;;;;;17.26;37.36;94894.81;10521328;28;1867;-59
2024/02/12 18:17:48;;;;;;;;;;;;;;;17.25;37.33;94901.09;10528425;28;1972;-60
2024/02/12 18:22:49;;;;;;;;;;;;;;;17.25;37.35;94911.59;10510860;28;1587;-61
2024/02/12 18:27:50;;;;;;;;;;;;;;;17.25;37.31;94916.06;10524838;28;1726;-59
2024/02/12 18:32:50;;;;;;;;;;;;;;;17.25;37.28;94926.53;10519519;28;1600;-60
2024/02/12 18:37:51;;;;;;;;;;;;;;;17.24;37.40;94951.94;10528876;28;1981;-60
2024/02/12 18:42:52;;;;;;;;;;;;;;;17.23;37.29;94971.31;10515729;28;1928;-61
2024/02/12 18:47:57;;;;;;;;;;;;;;;17.22;37.33;94976.81;10519327;28;1476;-60
2024/02/12 18:52:57;;;;;;;;;;;;;;;17.21;37.52;94976.03;10516019;28;1503;-59
2024/02/12 18:57:57;;;;;;;;;;;;;;;17.20;37.34;94971.88;10509982;28;1910;-60
2024/02/12 19:02:58;;;;;;;;;;;;;;;17.22;37.35;94979.44;10522559;28;2291;-61
2024/02/12 19:07:58;;;;;;;;;;;;;;;17.21;37.38;94975.28;10520730;28;1460;-61
2024/02/12 19:12:59;;;;;;;;;;;;;;;17.21;37.28;94993.59;10517769;28;1452;-61
2024/02/12 19:18:03;;;;;;;;;;;;;;;17.19;37.36;95001.72;10528557;28;1952;-60
2024/02/12 19:23:07;;;;;;;;;;;;;;;17.19;37.34;95001.72;10512994;28;1659;-60
2024/02/12 19:28:09;;;;;;;;;;;;;;;17.19;37.36;95022.66;10523593;28;1421;-59
2024/02/12 19:33:09;;;;;;;;;;;;;;;17.18;37.21;95021.09;10506551;28;1586;-59
2024/02/12 19:38:10;;;;;;;;;;;;;;;17.19;37.34;95017.44;10516392;28;1906;-59
2024/02/12 19:43:11;;;;;;;;;;;;;;;17.19;37.29;95032.38;10513519;28;1616;-60
2024/02/12 19:48:11;;;;;;;;;;;;;;;17.18;37.28;95036.81;10516771;28;1461;-61
2024/02/12 19:53:12;;;;;;;;;;;;;;;17.18;37.13;95046.50;10517267;28;1473;-60
2024/02/12 19:58:12;;;;;;;;;;;;;;;17.18;37.26;95059.59;10524124;28;2303;-59
2024/02/12 20:03:15;;;;;;;;;;;;;;;17.16;37.28;95059.88;10513024;28;1540;-61
2024/02/12 20:08:16;;;;;;;;;;;;;;;17.17;37.22;95065.88;10510969;28;1485;-60
2024/02/12 20:13:16;;;;;;;;;;;;;;;17.16;37.19;95072.97;10529424;28;1778;-60
2024/02/12 20:18:17;;;;;;;;;;;;;;;17.15;37.16;95074.00;10522219;28;1993;-61
2024/02/12 20:23:17;;;;;;;;;;;;;;;17.16;37.17;95085.28;10511185;28;1491;-65
2024/02/12 20:28:17;;;;;;;;;;;;;;;17.14;37.23;95095.22;10512318;28;1623;-60
2024/02/12 20:33:17;;;;;;;;;;;;;;;17.14;37.15;95096.03;10519854;28;1473;-61
2024/02/12 20:38:18;;;;;;;;;;;;;;;17.13;37.19;95110.16;10515647;28;1905;-60
2024/02/12 20:43:19;;;;;;;;;;;;;;;17.14;37.14;95118.81;10506952;28;1470;-60
2024/02/12 20:48:19;;;;;;;;;;;;;;;17.13;37.17;95131.09;10509192;28;1822;-60
2024/02/12 20:53:20;;;;;;;;;;;;;;;17.14;37.18;95139.75;10517608;28;2309;-60
2024/02/12 20:58:20;;;;;;;;;;;;;;;17.13;37.13;95146.03;10516372;28;1985;-61
2024/02/12 21:03:22;;;;;;;;;;;;;;;17.12;37.09;95158.34;10527136;28;1624;-59
2024/02/12 21:08:23;;;;;;;;;;;;;;;17.13;36.95;95159.13;10514611;28;1661;-61
2024/02/12 21:13:23;;;;;;;;;;;;;;;17.12;37.10;95168.84;10515586;28;1468;-59
2024/02/12 21:18:23;;;;;;;;;;;;;;;17.10;37.11;95181.41;10519586;28;1909;-60
2024/02/12 21:23:24;;;;;;;;;;;;;;;17.12;37.14;95186.38;10521494;28;1622;-60
2024/02/12 21:28:25;;;;;;;;;;;;;;;17.10;37.10;95184.03;10509529;28;1889;-58
2024/02/12 21:33:26;;;;;;;;;;;;;;;17.11;37.04;95182.97;10518307;28;1509;-60
2024/02/12 21:38:31;;;;;;;;;;;;;;;17.10;36.98;95191.88;10509686;28;1913;-61
2024/02/12 21:43:32;;;;;;;;;;;;;;;17.09;37.09;95190.28;10519277;28;1500;-60
2024/02/12 21:48:32;;;;;;;;;;;;;;;17.09;37.10;95200.78;10514408;28;2381;-60
2024/02/12 21:53:33;;;;;;;;;;;;;;;17.09;37.14;95208.63;10512855;28;1489;-60
2024/02/12 21:58:33;;;;;;;;;;;;;;;17.09;37.05;95213.88;10514336;28;1952;-61
2024/02/12 22:03:33;;;;;;;;;;;;;;;17.08;37.05;95220.16;10507045;28;1609;-60
2024/02/12 22:08:34;;;;;;;;;;;;;;;17.07;37.09;95229.84;10520046;28;1472;-60
2024/02/12 22:13:34;;;;;;;;;;;;;;;17.07;37.03;95239.53;10510629;28;1832;-60
2024/02/12 22:18:34;;;;;;;;;;;;;;;17.07;37.02;95247.38;10519395;28;1905;-60
2024/02/12 22:23:35;;;;;;;;;;;;;;;17.07;37.01;95245.56;10519618;28;1626;-60
2024/02/12 22:28:37;;;;;;;;;;;;;;;17.05;37.05;95247.66;10516674;28;1505;-60
2024/02/12 22:33:37;;;;;;;;;;;;;;;17.06;37.00;95249.22;10514794;28;1484;-59
2024/02/12 22:38:38;;;;;;;;;;;;;;;17.06;37.02;95270.16;10514567;28;1918;-60
2024/02/12 22:43:38;;;;;;;;;;;;;;;17.05;37.10;95281.69;10520204;28;2418;-60
2024/02/12 22:48:41;;;;;;;;;;;;;;;17.05;36.99;95280.91;10515128;28;1518;-60
2024/02/12 22:53:42;;;;;;;;;;;;;;;17.04;37.11;95287.19;10516413;28;1467;-60
2024/02/12 22:58:42;;;;;;;;;;;;;;;17.03;37.12;95293.47;10521318;28;1906;-60
2024/02/12 23:03:44;;;;;;;;;;;;;;;17.04;36.97;95305.53;10511697;28;1485;-60
2024/02/12 23:08:44;;;;;;;;;;;;;;;17.02;37.07;95315.47;10519701;28;1522;-59
2024/02/12 23:13:45;;;;;;;;;;;;;;;17.02;36.99;95316.25;10514383;28;1484;-60
2024/02/12 23:18:46;;;;;;;;;;;;;;;17.02;36.94;95328.56;10506161;28;1981;-59
2024/02/12 23:23:47;;;;;;;;;;;;;;;17.02;36.94;95341.66;10521454;28;1429;-60
2024/02/12 23:28:47;;;;;;;;;;;;;;;17.01;37.00;95345.31;10520932;28;1468;-60
2024/02/12 23:33:48;;;;;;;;;;;;;;;17.02;36.94;95346.91;10515259;28;1405;-60
2024/02/12 23:38:48;;;;;;;;;;;;;;;17.00;37.03;95360.22;10525356;28;2460;-59
2024/02/12 23:43:49;;;;;;;;;;;;;;;17.01;36.84;95355.78;10519830;28;1488;-59
2024/02/12 23:48:49;;;;;;;;;;;;;;;17.00;36.94;95364.72;10514630;28;1711;-59
2024/02/12 23:53:49;;;;;;;;;;;;;;;17.00;36.93;95375.94;10513471;28;1576;-60
2024/02/12 23:58:50;;;;;;;;;;;;;;;17.01;36.87;95376.72;10517451;28;1958;-59
